Time;durP1;ratioP1;P1;durP2;ratioP2;P2;SDS_P1;SDS_P2;PMS_P1;PMS_P2;Temp;Humidity;BMP_temperature;BMP_pressure;BME280_temperature;BME280_humidity;BME280_pressure;Samples;Min_cycle;Max_cycle;Signal;HPM_P1;HPM_P2
2022/03/10 00:02:06;;;;;;;3.88;1.75;;;;;;;-7.90;100.00;100157.66;5112981;28;20047;-52
2022/03/10 00:04:33;;;;;;;2.80;1.55;;;;;;;-7.82;100.00;100160.84;5113000;28;20047;-52
2022/03/10 00:07:02;;;;;;;3.70;1.85;;;;;;;-7.87;100.00;100174.00;5112775;28;20134;-54
2022/03/10 00:09:28;;;;;;;2.42;1.77;;;;;;;-7.93;100.00;100164.25;5113023;28;20061;-53
2022/03/10 00:11:54;;;;;;;3.85;1.83;;;;;;;-7.85;100.00;100163.13;5112737;28;20138;-53
2022/03/10 00:14:20;;;;;;;3.70;1.88;;;;;;;-7.92;100.00;100165.88;5113107;28;20074;-52
2022/03/10 00:16:47;;;;;;;4.80;1.98;;;;;;;-7.93;100.00;100168.72;5112720;28;20051;-52
2022/03/10 00:19:14;;;;;;;3.03;1.77;;;;;;;-8.04;100.00;100167.59;5113024;28;20553;-53
2022/03/10 00:21:41;;;;;;;3.72;1.45;;;;;;;-8.06;100.00;100161.69;5112218;28;20044;-51
2022/03/10 00:24:07;;;;;;;6.70;2.10;;;;;;;-8.10;100.00;100161.28;5112849;28;20098;-53
2022/03/10 00:26:34;;;;;;;6.50;1.67;;;;;;;-8.10;100.00;100160.50;5112667;28;20139;-55
2022/03/10 00:29:00;;;;;;;3.15;1.90;;;;;;;-8.17;100.00;100162.41;5112770;28;20051;-52
2022/03/10 00:31:26;;;;;;;5.75;1.98;;;;;;;-8.18;100.00;100158.91;5112579;28;20560;-53
2022/03/10 00:33:52;;;;;;;3.08;1.73;;;;;;;-8.14;100.00;100153.97;5112231;28;20138;-56
2022/03/10 00:36:19;;;;;;;2.85;1.75;;;;;;;-8.18;100.00;100164.25;5112436;28;20108;-52
2022/03/10 00:38:46;;;;;;;3.95;1.75;;;;;;;-8.17;100.00;100160.53;5112459;28;20139;-55
2022/03/10 00:41:12;;;;;;;10.02;2.15;;;;;;;-8.16;100.00;100164.00;5112495;28;20058;-53
2022/03/10 00:43:38;;;;;;;3.53;1.92;;;;;;;-8.23;100.00;100166.75;5112426;28;20142;-56
2022/03/10 00:46:05;;;;;;;5.07;1.90;;;;;;;-8.27;100.00;100173.53;5112545;28;20089;-56
2022/03/10 00:48:31;;;;;;;4.32;1.65;;;;;;;-8.27;100.00;100175.38;5112177;28;20056;-55
2022/03/10 00:50:58;;;;;;;4.28;2.30;;;;;;;-8.27;100.00;100175.38;5112403;28;20511;-55
2022/03/10 00:53:24;;;;;;;3.17;1.90;;;;;;;-8.34;100.00;100170.91;5112094;28;20055;-55
2022/03/10 00:55:51;;;;;;;3.95;2.25;;;;;;;-8.34;100.00;100175.41;5112443;28;20051;-55
2022/03/10 00:58:17;;;;;;;2.90;1.77;;;;;;;-8.36;100.00;100175.66;5112087;28;20048;-52
2022/03/10 01:00:43;;;;;;;4.05;2.10;;;;;;;-8.43;100.00;100180.25;5112171;28;20086;-51
2022/03/10 01:03:10;;;;;;;4.10;1.70;;;;;;;-8.51;100.00;100182.34;5110879;28;20055;-55
2022/03/10 01:05:36;;;;;;;4.43;1.95;;;;;;;-8.60;100.00;100182.56;5112323;28;20052;-53
2022/03/10 01:08:03;;;;;;;2.05;1.55;;;;;;;-8.53;100.00;100179.88;5112562;28;20048;-56
2022/03/10 01:10:29;;;;;;;2.33;1.63;;;;;;;-8.49;100.00;100190.91;5112167;28;20054;-52
2022/03/10 01:12:56;;;;;;;11.05;2.33;;;;;;;-8.50;100.00;100194.59;5112166;28;20142;-55
2022/03/10 01:15:24;;;;;;;2.97;1.60;;;;;;;-8.57;100.00;100189.31;5111857;28;20135;-54
2022/03/10 01:17:51;;;;;;;3.72;1.92;;;;;;;-8.56;100.00;100197.09;5112209;28;20600;-52
2022/03/10 01:20:18;;;;;;;3.20;1.50;;;;;;;-8.61;100.00;100188.13;5112086;28;20083;-54
2022/03/10 01:22:45;;;;;;;2.72;1.45;;;;;;;-8.59;100.00;100181.56;5111851;28;20537;-52
2022/03/10 01:25:12;;;;;;;2.80;1.85;;;;;;;-8.71;100.00;100193.91;5112072;28;20133;-54
2022/03/10 01:27:39;;;;;;;3.90;1.92;;;;;;;-8.59;100.00;100192.19;5111922;28;20058;-56
2022/03/10 01:30:07;;;;;;;5.45;2.08;;;;;;;-8.64;100.00;100193.84;5111731;28;20054;-52
2022/03/10 01:32:34;;;;;;;6.55;2.30;;;;;;;-8.71;100.00;100196.56;5111726;28;20051;-54
2022/03/10 01:35:01;;;;;;;4.22;1.90;;;;;;;-8.73;100.00;100200.44;5112181;28;20577;-53
2022/03/10 01:37:27;;;;;;;3.45;1.73;;;;;;;-8.71;100.00;100209.03;5112082;28;20156;-55
2022/03/10 01:39:54;;;;;;;3.00;1.75;;;;;;;-8.79;100.00;100202.94;5111926;28;20376;-51
2022/03/10 01:42:20;;;;;;;3.67;2.22;;;;;;;-8.85;100.00;100209.09;5111601;28;20054;-50
2022/03/10 01:44:51;;;;;;;5.90;2.33;;;;;;;-8.84;100.00;100205.41;5111714;28;20518;-53
2022/03/10 01:47:18;;;;;;;2.40;1.58;;;;;;;-8.95;100.00;100222.03;5111395;28;20109;-52
2022/03/10 01:49:44;;;;;;;4.07;1.85;;;;;;;-8.98;100.00;100217.13;5111387;28;20052;-51
2022/03/10 01:52:11;;;;;;;6.20;2.33;;;;;;;-8.96;100.00;100222.22;5111287;28;20079;-52
2022/03/10 01:54:37;;;;;;;4.00;1.98;;;;;;;-8.94;100.00;100213.03;5111241;28;20532;-53
2022/03/10 01:57:04;;;;;;;7.38;1.88;;;;;;;-9.01;100.00;100217.56;5111396;28;20048;-51
2022/03/10 01:59:30;;;;;;;3.85;1.85;;;;;;;-8.96;100.00;100217.75;5111307;28;20047;-53
2022/03/10 02:01:57;;;;;;;2.95;1.60;;;;;;;-9.05;100.00;100234.94;5111817;28;20052;-55
2022/03/10 02:04:24;;;;;;;4.32;2.22;;;;;;;-9.11;100.00;100238.44;5111330;28;20457;-52
2022/03/10 02:06:50;;;;;;;4.97;2.00;;;;;;;-9.11;100.00;100236.59;5111684;28;20047;-51
2022/03/10 02:12:02;;;;;;;4.03;1.83;;;;;;;-9.14;100.00;100247.63;5111314;28;20066;-51
2022/03/10 02:17:22;;;;;;;4.13;1.67;;;;;;;-9.13;100.00;100262.56;5111097;28;20067;-55
2022/03/10 02:19:50;;;;;;;3.22;2.08;;;;;;;-9.26;100.00;100262.63;5111093;28;20051;-55
2022/03/10 02:22:17;;;;;;;4.50;2.05;;;;;;;-9.20;100.00;100255.63;5110472;28;20239;-53
2022/03/10 02:24:45;;;;;;;2.83;1.58;;;;;;;-9.10;100.00;100266.63;5110962;28;20419;-52
2022/03/10 02:27:15;;;;;;;4.00;1.73;;;;;;;-9.14;100.00;100276.88;5110872;28;20052;-51
2022/03/10 02:29:43;;;;;;;4.72;1.77;;;;;;;-9.12;100.00;100281.97;5110987;28;20048;-52
2022/03/10 02:32:10;;;;;;;3.33;1.58;;;;;;;-9.17;100.00;100273.81;5110782;28;20054;-55
2022/03/10 02:34:36;;;;;;;3.47;1.58;;;;;;;-9.25;100.00;100293.44;5110823;28;20495;-51
2022/03/10 02:37:03;;;;;;;6.40;1.55;;;;;;;-9.30;100.00;100295.91;5110614;28;20513;-54
2022/03/10 02:39:31;;;;;;;4.03;2.28;;;;;;;-9.30;100.00;100309.19;5110696;28;20058;-56
2022/03/10 02:41:57;;;;;;;6.65;2.38;;;;;;;-9.31;100.00;100310.22;5110619;28;20051;-54
2022/03/10 02:44:24;;;;;;;3.60;2.47;;;;;;;-9.35;100.00;100301.03;5110649;28;20083;-54
2022/03/10 02:46:50;;;;;;;3.42;1.90;;;;;;;-9.41;100.00;100310.63;5110646;28;20070;-55
2022/03/10 02:49:16;;;;;;;2.35;1.58;;;;;;;-9.38;100.00;100318.19;5110423;28;20079;-53
2022/03/10 02:51:43;;;;;;;3.80;1.83;;;;;;;-9.40;100.00;100306.94;5110436;28;20053;-54
2022/03/10 02:54:09;;;;;;;3.15;1.58;;;;;;;-9.40;100.00;100322.88;5110131;28;20055;-55
2022/03/10 02:56:36;;;;;;;4.65;1.90;;;;;;;-9.38;100.00;100322.69;5110292;28;20075;-55
2022/03/10 02:59:03;;;;;;;7.82;2.10;;;;;;;-9.40;100.00;100328.19;5110381;28;20058;-51
2022/03/10 03:01:29;;;;;;;4.40;1.67;;;;;;;-9.44;100.00;100336.78;5110377;28;20055;-51
2022/03/10 03:03:55;;;;;;;12.50;1.75;;;;;;;-9.49;100.00;100340.06;5110356;28;20056;-54
2022/03/10 03:06:21;;;;;;;3.95;2.10;;;;;;;-9.49;100.00;100340.06;5110652;28;20121;-53
2022/03/10 03:08:48;;;;;;;4.38;1.70;;;;;;;-9.44;100.00;100347.41;5110499;28;20051;-55
2022/03/10 03:11:15;;;;;;;3.40;2.00;;;;;;;-9.54;100.00;100350.44;5110586;28;20158;-53
2022/03/10 03:13:42;;;;;;;3.38;1.83;;;;;;;-9.50;100.00;100349.03;5110125;28;20051;-51
2022/03/10 03:16:08;;;;;;;1.67;1.35;;;;;;;-9.51;100.00;100345.56;5110357;28;20051;-52
2022/03/10 03:18:34;;;;;;;4.88;2.30;;;;;;;-9.51;100.00;100347.41;5110136;28;20051;-53
2022/03/10 03:21:01;;;;;;;4.50;1.80;;;;;;;-9.53;100.00;100352.06;5109556;28;20197;-54
2022/03/10 03:23:27;;;;;;;2.55;1.80;;;;;;;-9.45;100.00;100351.06;5109861;28;20054;-54
2022/03/10 03:25:54;;;;;;;10.43;2.10;;;;;;;-9.59;100.00;100350.28;5110823;28;20048;-53
2022/03/10 03:28:21;;;;;;;3.58;1.92;;;;;;;-9.66;100.00;100360.03;5113883;28;20082;-51
2022/03/10 03:30:48;;;;;;;1.77;1.42;;;;;;;-9.70;100.00;100359.63;5105155;28;20047;-51
2022/03/10 03:33:14;;;;;;;2.35;1.65;;;;;;;-9.75;100.00;100359.44;5113676;28;20047;-51
2022/03/10 03:35:41;;;;;;;4.10;2.10;;;;;;;-9.78;100.00;100351.88;5113444;28;20189;-51
2022/03/10 03:38:07;;;;;;;2.88;1.80;;;;;;;-9.82;100.00;100348.00;5113354;28;20426;-51
2022/03/10 03:40:33;;;;;;;4.78;2.15;;;;;;;-9.86;100.00;100355.56;5113322;28;20494;-51
2022/03/10 03:43:00;;;;;;;3.63;2.30;;;;;;;-9.90;100.00;100349.00;5113458;28;20540;-52
2022/03/10 03:45:26;;;;;;;4.78;2.60;;;;;;;-9.82;100.00;100348.00;5113365;28;20086;-55
2022/03/10 03:47:54;;;;;;;7.32;2.08;;;;;;;-9.79;100.00;100350.25;5113201;28;20434;-55
2022/03/10 03:50:21;;;;;;;5.18;2.30;;;;;;;-9.80;100.00;100359.22;5113318;28;20476;-52
2022/03/10 03:52:47;;;;;;;3.40;1.58;;;;;;;-9.81;100.00;100365.53;5113072;28;20111;-54
2022/03/10 03:55:14;;;;;;;6.13;2.15;;;;;;;-9.88;100.00;100375.34;5113529;28;20188;-54
2022/03/10 03:57:41;;;;;;;2.80;2.08;;;;;;;-9.87;100.00;100377.78;5113239;28;20134;-52
2022/03/10 04:00:10;;;;;;;6.10;2.30;;;;;;;-9.85;100.00;100377.59;5113361;28;20050;-54
2022/03/10 04:02:36;;;;;;;4.07;2.03;;;;;;;-9.90;100.00;100382.66;5112949;28;20048;-54
2022/03/10 04:05:04;;;;;;;4.18;2.10;;;;;;;-9.94;100.00;100395.53;5113169;28;20135;-52
2022/03/10 04:07:30;;;;;;;4.50;2.10;;;;;;;-9.85;100.00;100414.75;5112929;28;20510;-50
2022/03/10 04:09:57;;;;;;;4.18;2.50;;;;;;;-9.93;100.00;100413.06;5112990;28;20052;-51
2022/03/10 04:12:23;;;;;;;2.97;1.98;;;;;;;-10.00;100.00;100423.66;5112972;28;20568;-54
2022/03/10 04:14:49;;;;;;;5.93;1.88;;;;;;;-9.99;100.00;100438.56;5112735;28;20043;-54
2022/03/10 04:17:15;;;;;;;6.32;2.20;;;;;;;-10.02;100.00;100435.50;5112962;28;20070;-52
2022/03/10 04:19:42;;;;;;;4.35;2.30;;;;;;;-10.08;100.00;100447.72;5112913;28;20055;-54
2022/03/10 04:22:09;;;;;;;3.55;2.22;;;;;;;-10.09;100.00;100440.78;5112124;28;20043;-51
2022/03/10 04:24:36;;;;;;;2.17;1.60;;;;;;;-10.07;100.00;100428.13;5112666;28;20055;-53
2022/03/10 04:27:02;;;;;;;3.30;1.60;;;;;;;-10.13;100.00;100439.53;5112506;28;20061;-55
2022/03/10 04:29:28;;;;;;;3.80;1.90;;;;;;;-10.16;100.00;100434.66;5112593;28;20087;-54
2022/03/10 04:31:54;;;;;;;2.03;1.55;;;;;;;-10.18;100.00;100442.78;5112656;28;20048;-55
2022/03/10 04:34:21;;;;;;;10.00;2.08;;;;;;;-10.19;100.00;100438.50;5112441;28;20090;-51
2022/03/10 04:36:47;;;;;;;9.18;2.60;;;;;;;-10.20;100.00;100442.16;5112270;28;20048;-51
2022/03/10 04:39:14;;;;;;;3.45;2.58;;;;;;;-10.22;100.00;100440.72;5112152;28;20051;-51
2022/03/10 04:41:40;;;;;;;6.35;2.03;;;;;;;-10.23;100.00;100431.13;5112064;28;20525;-54
2022/03/10 04:44:07;;;;;;;4.07;2.00;;;;;;;-10.27;100.00;100432.56;5112289;28;20052;-54
2022/03/10 04:46:33;;;;;;;3.22;1.85;;;;;;;-10.33;100.00;100438.66;5112131;28;20118;-55
2022/03/10 04:48:59;;;;;;;3.53;2.05;;;;;;;-10.33;100.00;100441.31;5112352;28;20134;-55
2022/03/10 04:51:25;;;;;;;16.88;2.85;;;;;;;-10.24;100.00;100440.09;5112122;28;20047;-53
2022/03/10 04:53:52;;;;;;;3.97;1.92;;;;;;;-10.24;100.00;100435.63;5112306;28;20120;-54
2022/03/10 04:56:19;;;;;;;10.90;2.58;;;;;;;-10.21;100.00;100447.66;5112154;28;20055;-54
2022/03/10 04:58:45;;;;;;;6.35;2.10;;;;;;;-10.28;100.00;100445.03;5129877;28;20135;-59
2022/03/10 05:01:12;;;;;;;3.75;1.55;;;;;;;-10.36;100.00;100436.41;5133381;28;20089;-60
2022/03/10 05:03:38;;;;;;;1.95;1.50;;;;;;;-10.29;100.00;100446.03;5133245;28;20058;-60
2022/03/10 05:06:07;;;;;;;3.33;2.15;;;;;;;-10.30;100.00;100435.63;5132370;28;20134;-57
2022/03/10 05:08:33;;;;;;;6.13;2.58;;;;;;;-10.34;100.00;100452.94;5132191;28;20100;-60
2022/03/10 05:11:00;;;;;;;5.82;3.00;;;;;;;-10.38;100.00;100451.69;5132228;28;20489;-59
2022/03/10 05:13:27;;;;;;;3.55;1.90;;;;;;;-10.34;100.00;100442.34;5131839;28;20580;-64
2022/03/10 05:15:53;;;;;;;3.80;2.17;;;;;;;-10.34;100.00;100444.97;5122725;28;20422;-63
2022/03/10 05:18:19;;;;;;;8.60;3.38;;;;;;;-10.35;100.00;100444.16;5125448;28;20047;-59
2022/03/10 05:20:46;;;;;;;7.45;2.75;;;;;;;-10.21;100.00;100445.00;5131937;27;20051;-60
2022/03/10 05:23:12;;;;;;;5.15;2.00;;;;;;;-9.73;100.00;100434.34;5123125;27;20055;-58
2022/03/10 05:25:40;;;;;;;3.20;2.17;;;;;;;-9.57;100.00;100444.59;5131860;28;20051;-61
2022/03/10 05:28:11;;;;;;;3.70;2.28;;;;;;;-9.15;100.00;100447.91;5117347;28;20082;-57
2022/03/10 05:30:38;;;;;;;4.90;1.45;;;;;;;-7.84;100.00;100460.25;5117799;28;20117;-55
2022/03/10 05:33:04;;;;;;;7.03;2.13;;;;;;;-6.54;100.00;100513.84;5131732;28;20351;-55
2022/03/10 05:35:30;;;;;;;2.88;1.70;;;;;;;-5.23;100.00;100567.84;5131547;28;20557;-58
2022/03/10 05:37:57;;;;;;;4.28;2.22;;;;;;;-4.62;100.00;100622.94;5131616;28;20058;-59
2022/03/10 05:40:24;;;;;;;3.42;1.85;;;;;;;-4.27;100.00;100671.16;5131705;28;20127;-58
2022/03/10 05:42:53;;;;;;;16.02;2.83;;;;;;;-3.88;100.00;100686.84;5131608;28;20096;-57
2022/03/10 05:45:20;;;;;;;7.88;2.60;;;;;;;-3.58;94.65;100714.34;5131732;28;20082;-56
2022/03/10 05:47:48;;;;;;;8.50;2.42;;;;;;;-3.17;89.77;100719.78;5131388;28;20142;-60
2022/03/10 05:50:14;;;;;;;3.50;2.60;;;;;;;-3.27;85.40;100743.72;5118438;27;20070;-60
2022/03/10 05:52:41;;;;;;;6.15;1.95;;;;;;;-2.96;83.21;100759.44;5110889;28;20486;-59
2022/03/10 05:55:08;;;;;;;16.00;2.67;;;;;;;-3.04;82.92;100761.63;5121157;28;20055;-60
2022/03/10 05:57:34;;;;;;;4.50;2.47;;;;;;;-3.02;83.54;100776.47;5131384;28;20051;-59
2022/03/10 06:00:01;;;;;;;6.50;2.50;;;;;;;-3.08;81.58;100767.47;5126661;28;20047;-62
2022/03/10 06:02:27;;;;;;;7.63;2.58;;;;;;;-2.46;80.61;100779.50;5110701;28;20044;-62
2022/03/10 06:04:59;;;;;;;4.88;2.47;;;;;;;-1.99;80.30;100782.78;5110763;28;20058;-62
2022/03/10 06:07:25;;;;;;;3.88;2.42;;;;;;;-2.16;75.81;100790.00;5110538;28;20052;-59
2022/03/10 06:09:52;;;;;;;4.18;2.25;;;;;;;-1.67;76.63;100796.50;5110204;28;20094;-60
2022/03/10 06:12:21;;;;;;;3.40;2.33;;;;;;;-1.00;75.48;100794.78;5110527;28;20047;-57
2022/03/10 06:14:47;;;;;;;5.72;2.00;;;;;;;-0.95;74.51;100802.94;5110345;28;20055;-57
2022/03/10 06:17:13;;;;;;;3.22;2.30;;;;;;;-1.19;73.31;100802.34;5110659;28;20047;-62
2022/03/10 06:19:40;;;;;;;8.65;3.90;;;;;;;-1.29;70.81;100805.69;5110734;28;20553;-60
2022/03/10 06:22:07;;;;;;;9.20;3.78;;;;;;;-1.20;70.84;100806.91;5109877;28;20048;-56
2022/03/10 06:24:33;;;;;;;15.27;5.22;;;;;;;-1.01;69.32;100810.13;5110617;28;20051;-60
2022/03/10 06:26:59;;;;;;;10.05;5.13;;;;;;;-0.98;70.61;100812.34;5125789;28;20054;-61
2022/03/10 06:29:25;;;;;;;36.83;13.20;;;;;;;-1.05;69.19;100810.88;5110049;28;20044;-62
2022/03/10 06:31:52;;;;;;;26.83;12.70;;;;;;;-0.60;69.85;100810.69;5128817;28;20104;-60
2022/03/10 06:34:19;;;;;;;11.13;6.50;;;;;;;-0.09;69.40;100805.88;5131066;28;20171;-60
2022/03/10 06:36:45;;;;;;;10.68;2.65;;;;;;;-0.46;66.69;100827.31;5130505;28;20051;-62
2022/03/10 06:39:12;;;;;;;7.38;3.78;;;;;;;-0.24;67.12;100824.56;5130589;28;20501;-61
2022/03/10 06:41:39;;;;;;;12.20;4.22;;;;;;;-0.67;65.53;100828.91;5129498;27;20047;-60
2022/03/10 06:44:05;;;;;;;9.93;4.00;;;;;;;-0.46;65.78;100832.69;5130647;28;20521;-61
2022/03/10 06:46:32;;;;;;;17.42;7.85;;;;;;;-0.49;66.17;100830.50;5130670;28;20154;-62
2022/03/10 06:48:58;;;;;;;13.38;4.68;;;;;;;-0.07;65.97;100822.63;5130372;28;20051;-60
2022/03/10 06:51:24;;;;;;;6.32;3.58;;;;;;;-0.13;64.60;100834.41;5130744;28;20108;-61
2022/03/10 06:53:51;;;;;;;11.43;5.38;;;;;;;0.11;65.56;100824.16;5123518;27;20616;-63
2022/03/10 06:56:18;;;;;;;10.07;3.50;;;;;;;0.01;63.90;100834.84;5125828;28;20479;-59
2022/03/10 06:58:44;;;;;;;11.40;5.10;;;;;;;0.03;64.54;100845.34;5132184;27;20472;-58
2022/03/10 07:01:10;;;;;;;15.43;5.47;;;;;;;0.30;64.50;100838.09;5130833;27;20494;-59
2022/03/10 07:03:37;;;;;;;15.43;5.35;;;;;;;0.50;63.70;100842.03;5109665;28;20079;-61
2022/03/10 07:06:03;;;;;;;17.17;6.65;;;;;;;0.50;63.59;100856.34;5109606;28;20043;-61
2022/03/10 07:08:29;;;;;;;14.20;6.20;;;;;;;0.40;63.52;100851.69;5121968;27;20140;-59
2022/03/10 07:10:56;;;;;;;10.82;4.88;;;;;;;0.72;63.56;100844.66;5126826;28;20043;-60
2022/03/10 07:13:22;;;;;;;12.23;5.40;;;;;;;0.59;62.35;100846.69;5129815;28;20137;-59
2022/03/10 07:15:49;;;;;;;8.95;4.55;;;;;;;0.51;64.44;100855.28;5130077;28;20180;-59
2022/03/10 07:18:15;;;;;;;11.15;4.40;;;;;;;0.32;61.99;100860.22;5129926;28;20047;-59
2022/03/10 07:20:41;;;;;;;9.38;4.03;;;;;;;0.42;62.50;100868.41;5130013;28;20097;-60
2022/03/10 07:23:08;;;;;;;8.98;4.93;;;;;;;0.24;62.54;100860.69;5129437;28;20062;-58
2022/03/10 07:25:34;;;;;;;4.25;2.53;;;;;;;0.03;62.95;100864.22;5120706;28;20125;-59
2022/03/10 07:28:00;;;;;;;6.03;3.88;;;;;;;0.08;63.42;100862.41;5117981;27;20047;-58
2022/03/10 07:30:27;;;;;;;9.00;4.53;;;;;;;0.08;63.65;100875.09;5127775;28;20495;-57
2022/03/10 07:32:53;;;;;;;5.68;3.35;;;;;;;0.31;62.43;100871.28;5129962;28;20146;-56
2022/03/10 07:35:20;;;;;;;11.63;3.00;;;;;;;0.73;61.21;100875.97;5129762;28;20048;-58
2022/03/10 07:37:48;;;;;;;12.15;3.83;;;;;;;0.77;60.26;100880.59;5129991;27;20047;-58
2022/03/10 07:40:14;;;;;;;4.68;2.33;;;;;;;0.43;59.07;100885.41;5129541;28;20051;-56
2022/03/10 07:42:40;;;;;;;10.10;3.70;;;;;;;0.49;60.15;100875.47;5126489;27;20055;-57
2022/03/10 07:45:07;;;;;;;10.18;4.28;;;;;;;0.66;60.15;100892.38;5112122;28;20055;-58
2022/03/10 07:47:34;;;;;;;7.38;3.55;;;;;;;0.38;59.78;100879.97;5109149;28;20101;-58
2022/03/10 07:50:01;;;;;;;6.63;3.35;;;;;;;0.73;60.57;100890.25;5109015;28;20093;-58
2022/03/10 07:52:27;;;;;;;13.63;3.15;;;;;;;0.97;58.98;100889.91;5109334;28;20090;-59
2022/03/10 07:54:53;;;;;;;6.70;3.00;;;;;;;0.96;59.43;100870.19;5109063;28;20246;-61
2022/03/10 07:57:19;;;;;;;5.88;3.00;;;;;;;1.36;61.45;100887.75;5110280;28;20525;-60
2022/03/10 07:59:47;;;;;;;9.60;3.28;;;;;;;1.70;58.39;100900.91;5112080;28;20070;-60
2022/03/10 08:02:14;;;;;;;4.75;2.90;;;;;;;1.35;57.21;100896.94;5111288;28;20055;-60
2022/03/10 08:04:41;;;;;;;6.93;2.83;;;;;;;1.57;57.90;100877.88;5109391;28;20429;-60
2022/03/10 08:07:07;;;;;;;6.80;3.30;;;;;;;1.38;58.81;100891.81;5109040;28;20553;-59
2022/03/10 08:09:35;;;;;;;6.05;3.25;;;;;;;0.89;57.44;100891.22;5109651;28;20094;-60
2022/03/10 08:12:01;;;;;;;5.13;2.85;;;;;;;0.66;58.64;100876.97;5126253;27;20061;-60
2022/03/10 08:14:27;;;;;;;3.55;2.53;;;;;;;0.06;57.57;100898.78;5133059;28;20550;-58
2022/03/10 08:16:54;;;;;;;6.55;3.00;;;;;;;-0.31;59.41;100891.34;5122040;28;20047;-57
2022/03/10 08:19:21;;;;;;;4.18;2.53;;;;;;;0.26;59.79;100885.50;5114632;28;20147;-58
2022/03/10 08:21:48;;;;;;;4.85;2.80;;;;;;;0.56;58.43;100889.56;5111898;28;20047;-58
2022/03/10 08:24:15;;;;;;;7.13;3.88;;;;;;;0.44;58.98;100868.16;5115120;27;20051;-58
2022/03/10 08:26:42;;;;;;;5.22;2.78;;;;;;;0.65;59.98;100872.66;5112593;28;20108;-57
2022/03/10 08:29:08;;;;;;;8.90;2.72;;;;;;;0.77;57.92;100885.16;5112354;28;20055;-58
2022/03/10 08:31:35;;;;;;;3.33;2.35;;;;;;;0.39;57.43;100876.19;5112391;28;20104;-56
2022/03/10 08:34:01;;;;;;;13.13;2.88;;;;;;;-0.30;58.27;100887.56;5111970;28;20434;-58
2022/03/10 08:36:27;;;;;;;4.70;2.53;;;;;;;-0.20;59.80;100890.41;5115309;28;20512;-58
2022/03/10 08:38:54;;;;;;;4.82;2.45;;;;;;;-0.26;59.08;100894.91;5124774;27;20047;-59
2022/03/10 08:41:21;;;;;;;18.05;2.35;;;;;;;-0.36;58.93;100897.47;5117756;28;20494;-59
2022/03/10 08:43:47;;;;;;;4.32;2.30;;;;;;;-0.64;58.04;100887.66;5112042;28;20056;-59
2022/03/10 08:46:13;;;;;;;8.60;3.55;;;;;;;-0.29;60.00;100889.22;5114198;28;20047;-58
2022/03/10 08:48:40;;;;;;;6.20;2.47;;;;;;;0.66;61.22;100879.69;5121033;28;20061;-61
2022/03/10 08:51:07;;;;;;;9.25;2.70;;;;;;;1.14;57.64;100906.81;5119687;27;20059;-60
2022/03/10 08:53:35;;;;;;;3.83;2.50;;;;;;;0.77;57.25;100901.34;5114755;27;20125;-60
2022/03/10 08:56:02;;;;;;;3.58;2.25;;;;;;;0.51;58.21;100889.53;5111829;28;20142;-59
2022/03/10 08:58:28;;;;;;;5.97;2.95;;;;;;;0.18;58.04;100894.06;5111933;28;20142;-60
2022/03/10 09:00:55;;;;;;;7.35;2.97;;;;;;;0.47;58.21;100873.88;5111662;28;20098;-60
2022/03/10 09:03:21;;;;;;;5.38;2.80;;;;;;;0.92;58.67;100894.22;5121650;28;20505;-60
2022/03/10 09:05:47;;;;;;;4.80;2.60;;;;;;;0.68;58.01;100896.44;5111825;28;20592;-58
2022/03/10 09:08:14;;;;;;;5.13;2.80;;;;;;;0.90;59.19;100888.28;5112089;28;20465;-58
2022/03/10 09:10:40;;;;;;;5.80;2.85;;;;;;;1.35;58.72;100889.66;5112006;28;20418;-58
2022/03/10 09:13:07;;;;;;;6.97;2.97;;;;;;;0.96;56.54;100902.59;5111303;28;20043;-58
2022/03/10 09:15:34;;;;;;;5.03;2.65;;;;;;;0.94;56.55;100900.19;5111967;28;20047;-59
2022/03/10 09:18:00;;;;;;;8.57;2.40;;;;;;;0.78;55.82;100898.41;5111404;28;20071;-58
2022/03/10 09:20:26;;;;;;;3.83;1.90;;;;;;;0.73;54.67;100895.66;5113142;27;20078;-58
2022/03/10 09:22:53;;;;;;;11.88;2.65;;;;;;;0.50;55.34;100886.03;5123316;27;20478;-60
2022/03/10 09:25:19;;;;;;;13.43;3.03;;;;;;;0.28;54.83;100891.47;5129530;28;20047;-59
2022/03/10 09:27:46;;;;;;;9.63;2.85;;;;;;;0.15;56.56;100886.47;5130000;27;20047;-60
2022/03/10 09:30:13;;;;;;;5.07;2.10;;;;;;;0.22;54.72;100900.59;5130159;28;20103;-58
2022/03/10 09:32:41;;;;;;;15.88;2.78;;;;;;;0.23;55.58;100908.44;5119356;28;20054;-59
2022/03/10 09:35:09;;;;;;;5.22;2.40;;;;;;;0.13;55.31;100899.41;5137479;27;20138;-59
2022/03/10 09:37:36;;;;;;;5.88;2.83;;;;;;;0.19;56.13;100909.19;5150043;27;20051;-59
2022/03/10 09:40:03;;;;;;;8.45;2.13;;;;;;;0.02;56.24;100897.66;5148327;27;20085;-60
2022/03/10 09:42:31;;;;;;;3.58;2.67;;;;;;;0.31;57.33;100888.28;5149649;27;20043;-60
2022/03/10 09:44:58;;;;;;;7.07;2.80;;;;;;;0.31;55.15;100884.75;5150779;27;20135;-59
2022/03/10 09:47:26;;;;;;;5.10;2.83;;;;;;;0.25;55.94;100893.88;5150265;27;20126;-59
2022/03/10 09:49:52;;;;;;;4.28;2.05;;;;;;;0.72;55.33;100894.03;5145165;27;20042;-59
2022/03/10 09:52:19;;;;;;;2.83;2.42;;;;;;;0.64;55.08;100895.34;5148645;27;20184;-59
2022/03/10 09:54:45;;;;;;;11.07;2.83;;;;;;;0.90;54.92;100884.72;5150479;27;20062;-59
2022/03/10 09:57:15;;;;;;;2.95;1.73;;;;;;;0.56;53.93;100895.78;5150776;27;20038;-59
2022/03/10 09:59:51;;;;;;;9.38;2.92;;;;;;;0.58;55.88;100890.16;5150977;27;20504;-59
2022/03/10 10:02:17;;;;;;;4.88;2.22;;;;;;;0.35;54.82;100900.19;5148199;27;20054;-62
2022/03/10 10:04:44;;;;;;;5.68;2.10;;;;;;;0.88;56.29;100900.41;5151594;27;20078;-60
2022/03/10 10:07:11;;;;;;;7.45;2.40;;;;;;;0.58;53.56;100900.94;5152032;27;20106;-60
2022/03/10 10:09:42;;;;;;;14.82;2.70;;;;;;;0.26;54.22;100906.28;5146991;27;20053;-60
2022/03/10 10:12:09;;;;;;;4.63;1.80;;;;;;;0.16;54.68;100909.69;5151588;27;20058;-60
2022/03/10 10:14:37;;;;;;;4.45;2.28;;;;;;;0.19;55.00;100909.19;5149985;27;20049;-60
2022/03/10 10:17:04;;;;;;;5.47;2.40;;;;;;;0.01;53.82;100925.69;5146022;27;20150;-59
2022/03/10 10:19:33;;;;;;;3.72;2.08;;;;;;;-0.29;56.32;100916.97;5150104;27;20057;-58
2022/03/10 10:22:13;;;;;;;7.88;1.92;;;;;;;-0.04;55.63;100913.75;5149467;27;20087;-57
2022/03/10 10:24:40;;;;;;;4.93;1.75;;;;;;;-0.36;54.09;100908.25;5150166;27;20054;-58
2022/03/10 10:27:14;;;;;;;5.15;1.70;;;;;;;-0.38;53.85;100918.47;5142820;27;20469;-59
2022/03/10 10:29:46;;;;;;;;;;;;;;;-0.82;55.15;100918.38;5144827;27;20051;-58
2022/03/10 10:32:13;;;;;;;2.97;1.85;;;;;;;-0.95;56.64;100911.44;5130018;27;20378;-59
2022/03/10 10:34:39;;;;;;;10.02;2.85;;;;;;;-0.73;56.09;100916.91;5130596;27;20539;-59
2022/03/10 10:37:06;;;;;;;4.63;1.90;;;;;;;-0.67;54.93;100907.00;5134096;27;20050;-59
2022/03/10 10:39:33;;;;;;;3.85;1.88;;;;;;;-0.48;54.71;100911.06;5142358;27;20046;-59
2022/03/10 10:41:59;;;;;;;7.68;2.10;;;;;;;-0.41;54.75;100910.06;5143871;27;20232;-59
2022/03/10 10:44:25;;;;;;;7.25;2.30;;;;;;;-0.17;56.60;100895.28;5146230;27;20598;-60
2022/03/10 10:46:58;;;;;;;5.70;1.63;;;;;;;-0.23;54.29;100915.16;5135128;27;20047;-59
2022/03/10 10:49:24;;;;;;;6.72;2.08;;;;;;;-0.31;57.75;100904.81;5137262;27;20068;-59
2022/03/10 10:51:52;;;;;;;4.00;2.03;;;;;;;-0.13;56.80;100914.47;5151318;27;20475;-59
2022/03/10 10:54:31;;;;;;;4.13;1.85;;;;;;;-0.18;56.79;100893.66;5143005;27;20047;-59
2022/03/10 10:57:01;;;;;;;7.90;2.38;;;;;;;-0.05;57.49;100881.69;5130152;28;20047;-59
2022/03/10 10:59:29;;;;;;;2.83;1.88;;;;;;;-0.18;56.59;100899.03;5129926;27;20525;-60
2022/03/10 11:02:08;;;;;;;4.00;2.22;;;;;;;-0.14;55.83;100902.88;5129960;28;20086;-59
2022/03/10 11:04:36;;;;;;;5.93;2.30;;;;;;;-0.22;54.73;100906.00;5130335;28;20478;-60
2022/03/10 11:07:03;;;;;;;7.43;2.25;;;;;;;-0.23;54.03;100896.31;5145267;27;20050;-60
2022/03/10 11:09:31;;;;;;;5.55;2.08;;;;;;;-0.08;53.21;100899.16;5142202;27;20054;-60
2022/03/10 11:11:58;;;;;;;5.53;2.55;;;;;;;-0.47;54.17;100903.78;5130329;28;20541;-61
2022/03/10 11:14:26;;;;;;;2.75;2.08;;;;;;;-0.43;54.67;100902.25;5124579;27;20050;-60
2022/03/10 11:16:53;;;;;;;2.45;2.03;;;;;;;-0.22;54.42;100902.50;5129963;27;20161;-60
2022/03/10 11:19:25;;;;;;;10.63;2.33;;;;;;;-0.20;53.83;100897.66;5130020;27;20083;-60
2022/03/10 11:22:15;;;;;;;10.82;2.15;;;;;;;-0.34;53.83;100884.56;5129662;27;20075;-60
2022/03/10 11:25:01;;;;;;;12.02;2.88;;;;;;;-0.20;56.06;100920.06;5114777;28;20051;-60
2022/03/10 11:27:32;;;;;;;13.15;2.75;;;;;;;-0.41;54.28;100905.50;5109720;28;20134;-60